Time;durP1;ratioP1;P1;durP2;ratioP2;P2;SDS_P1;SDS_P2;PMS_P1;PMS_P2;Temp;Humidity;BMP_temperature;BMP_pressure;BME280_temperature;BME280_humidity;BME280_pressure;Samples;Min_cycle;Max_cycle;Signal;HPM_P1;HPM_P2
2023/03/26 00:01:28;;;;;;;9.23;3.78;;;16.60;57.20;;;;;;5095644;28;20024;-93
2023/03/26 00:03:56;;;;;;;12.27;4.75;;;16.70;57.90;;;;;;5095554;28;20052;-93
2023/03/26 00:06:24;;;;;;;11.75;3.53;;;16.60;57.20;;;;;;5095335;28;20115;-93
2023/03/26 00:08:51;;;;;;;8.43;3.83;;;16.60;57.20;;;;;;5094988;28;20074;-90
2023/03/26 00:11:19;;;;;;;11.10;3.58;;;16.60;57.20;;;;;;5095102;28;20028;-90
2023/03/26 00:13:46;;;;;;;11.38;4.20;;;16.60;57.20;;;;;;5095181;28;20020;-93
2023/03/26 00:16:18;;;;;;;11.00;3.70;;;16.60;57.30;;;;;;5095425;28;20097;-93
2023/03/26 00:18:45;;;;;;;13.00;3.65;;;16.60;57.20;;;;;;5095080;28;20020;-93
2023/03/26 00:21:16;;;;;;;10.82;3.45;;;16.60;57.20;;;;;;5095565;28;20023;-93
2023/03/26 00:23:43;;;;;;;8.93;3.40;;;16.60;57.30;;;;;;5095837;28;20020;-92
2023/03/26 00:26:10;;;;;;;11.43;3.15;;;16.60;57.30;;;;;;5095021;28;20028;-92
2023/03/26 00:28:39;;;;;;;13.88;3.88;;;16.60;57.30;;;;;;5095148;28;20024;-93
2023/03/26 00:31:07;;;;;;;11.38;3.70;;;16.60;58.00;;;;;;5094629;28;20016;-92
2023/03/26 00:33:37;;;;;;;10.02;3.65;;;16.60;58.00;;;;;;5095229;28;20109;-90
2023/03/26 00:36:05;;;;;;;9.93;3.33;;;16.60;57.30;;;;;;5095127;28;20139;-92
2023/03/26 00:38:37;;;;;;;11.48;4.15;;;16.60;57.30;;;;;;5094828;28;20335;-91
2023/03/26 00:41:16;;;;;;;11.18;3.35;;;16.60;57.30;;;;;;5094680;28;20099;-92
2023/03/26 00:43:45;;;;;;;8.80;3.03;;;16.60;57.40;;;;;;5094735;28;20433;-91
2023/03/26 00:46:12;;;;;;;12.30;3.40;;;16.60;57.40;;;;;;5094662;28;20108;-90
2023/03/26 00:48:41;;;;;;;11.35;3.38;;;16.60;57.40;;;;;;5094501;28;20028;-91
2023/03/26 00:51:08;;;;;;;16.02;3.63;;;16.60;57.50;;;;;;5094587;28;20470;-91
2023/03/26 00:53:37;;;;;;;8.38;3.00;;;16.60;57.50;;;;;;5094909;28;20220;-90
2023/03/26 00:56:05;;;;;;;9.45;3.35;;;16.60;57.50;;;;;;5094515;28;20042;-90
2023/03/26 00:58:31;;;;;;;9.55;2.95;;;16.60;57.50;;;;;;5094175;28;20074;-91
2023/03/26 01:01:01;;;;;;;10.05;2.63;;;16.50;57.40;;;;;;5094348;28;20054;-91
2023/03/26 01:03:32;;;;;;;11.73;3.60;;;16.60;57.40;;;;;;5094190;28;20048;-90
2023/03/26 01:06:06;;;;;;;9.85;2.78;;;16.50;57.50;;;;;;5094515;28;20020;-91
2023/03/26 01:08:45;;;;;;;9.48;3.00;;;16.60;57.50;;;;;;5094391;28;20519;-91
2023/03/26 01:11:22;;;;;;;6.72;2.50;;;16.50;57.50;;;;;;5095007;28;20105;-92
2023/03/26 01:14:18;;;;;;;10.45;3.10;;;16.50;57.40;;;;;;5094126;28;20021;-92
2023/03/26 01:16:57;;;;;;;10.90;3.28;;;16.60;57.50;;;;;;5095177;28;20024;-92
2023/03/26 01:19:29;;;;;;;10.25;3.10;;;16.60;57.50;;;;;;5094065;28;20475;-92
2023/03/26 01:21:57;;;;;;;9.82;2.92;;;16.60;57.50;;;;;;5093686;28;20028;-91
2023/03/26 01:24:23;;;;;;;9.95;3.40;;;16.50;57.40;;;;;;5093703;28;20411;-93
2023/03/26 01:27:10;;;;;;;8.68;2.63;;;16.50;57.50;;;;;;5092453;28;20027;-72
2023/03/26 01:30:03;;;;;;;7.22;2.53;;;16.60;57.50;;;;;;5092819;28;20137;-72
2023/03/26 01:32:56;;;;;;;9.10;2.78;;;16.50;57.40;;;;;;5089393;28;20039;-72
2023/03/26 01:35:32;;;;;;;6.55;2.80;;;16.60;57.50;;;;;;5091960;28;20016;-72
2023/03/26 01:38:10;;;;;;;10.35;3.35;;;16.60;57.50;;;;;;5092480;28;20043;-72
2023/03/26 01:40:42;;;;;;;6.75;2.95;;;16.50;57.50;;;;;;5092582;28;20028;-72
2023/03/26 01:43:43;;;;;;;8.52;3.00;;;16.50;57.60;;;;;;5092734;28;20036;-72
2023/03/26 01:46:12;;;;;;;7.95;3.00;;;16.50;57.40;;;;;;5092476;28;20103;-72
2023/03/26 01:48:46;;;;;;;12.30;3.22;;;16.50;57.60;;;;;;5092440;28;20044;-72
2023/03/26 01:51:24;;;;;;;8.40;3.10;;;16.50;57.50;;;;;;5092151;28;20020;-72
2023/03/26 01:53:51;;;;;;;6.72;2.80;;;16.50;57.50;;;;;;5092527;28;20482;-72
2023/03/26 01:56:41;;;;;;;11.02;3.17;;;16.50;57.50;;;;;;5091997;28;20047;-72
2023/03/26 01:59:18;;;;;;;7.78;2.38;;;16.50;57.40;;;;;;5092380;28;20024;-72
2023/03/26 02:01:54;;;;;;;11.80;2.45;;;16.50;57.50;;;;;;5092415;28;20044;-72
2023/03/26 02:04:59;;;;;;;8.90;3.03;;;16.50;57.50;;;;;;5092017;28;20036;-72
2023/03/26 02:07:38;;;;;;;9.50;3.30;;;16.50;57.50;;;;;;5092176;28;20481;-71
2023/03/26 02:10:15;;;;;;;8.80;3.20;;;16.50;57.40;;;;;;5092013;28;20024;-72
2023/03/26 02:12:43;;;;;;;9.20;2.45;;;16.50;57.50;;;;;;5092037;28;20032;-72
2023/03/26 02:15:10;;;;;;;7.30;2.58;;;16.50;57.50;;;;;;5091952;28;20107;-72
2023/03/26 02:17:39;;;;;;;9.27;2.70;;;16.50;57.50;;;;;;5091866;28;20036;-72
2023/03/26 02:20:09;;;;;;;8.52;2.83;;;16.50;57.50;;;;;;5093177;28;20479;-89
2023/03/26 02:22:40;;;;;;;9.07;2.85;;;16.50;57.50;;;;;;5092974;28;20475;-91
2023/03/26 02:25:12;;;;;;;8.43;2.97;;;16.50;57.50;;;;;;5091850;28;20040;-90
2023/03/26 02:27:38;;;;;;;8.50;2.85;;;16.50;57.50;;;;;;5093235;28;20036;-90
2023/03/26 02:30:07;;;;;;;7.32;2.65;;;16.50;57.50;;;;;;5093128;28;20034;-90
2023/03/26 02:32:33;;;;;;;9.05;2.67;;;16.50;57.50;;;;;;5094121;28;20024;-90
2023/03/26 02:35:00;;;;;;;8.23;3.03;;;16.50;57.50;;;;;;5092717;28;20021;-90
2023/03/26 02:37:26;;;;;;;8.93;3.05;;;16.50;57.50;;;;;;5093476;28;20039;-91
2023/03/26 02:39:52;;;;;;;7.05;2.30;;;16.50;57.50;;;;;;5093382;28;20097;-89
2023/03/26 02:42:18;;;;;;;6.28;2.00;;;16.50;57.50;;;;;;5092769;28;20024;-88
2023/03/26 02:44:45;;;;;;;8.27;2.92;;;16.50;57.50;;;;;;5092494;28;20024;-88
2023/03/26 02:47:10;;;;;;;9.10;2.88;;;16.50;57.50;;;;;;5094152;28;20673;-88
2023/03/26 02:49:36;;;;;;;5.95;2.53;;;16.50;57.50;;;;;;5096080;28;20024;-88
2023/03/26 02:52:05;;;;;;;7.78;2.60;;;16.50;57.50;;;;;;5095886;28;20094;-88
2023/03/26 02:54:32;;;;;;;4.82;2.25;;;16.50;57.50;;;;;;5095994;28;20032;-91
2023/03/26 02:56:58;;;;;;;7.75;2.70;;;16.50;57.50;;;;;;5096433;28;20390;-90
2023/03/26 02:59:23;;;;;;;6.57;2.60;;;16.40;57.50;;;;;;5096427;28;20024;-91
2023/03/26 03:01:49;;;;;;;7.80;2.47;;;16.50;58.10;;;;;;5095130;28;20085;-91
2023/03/26 03:04:16;;;;;;;6.05;2.20;;;16.40;57.40;;;;;;5095986;28;20384;-91
2023/03/26 03:06:43;;;;;;;8.98;2.70;;;16.40;57.50;;;;;;5096448;28;20016;-91
2023/03/26 03:09:10;;;;;;;5.18;2.00;;;16.40;57.50;;;;;;5096707;28;20095;-91
2023/03/26 03:11:38;;;;;;;9.27;2.35;;;16.40;57.50;;;;;;5096409;28;20459;-90
2023/03/26 03:14:05;;;;;;;7.25;2.58;;;16.40;57.50;;;;;;5097140;28;20020;-90
2023/03/26 03:16:31;;;;;;;8.80;2.63;;;16.40;57.50;;;;;;5096802;28;20027;-90
2023/03/26 03:18:57;;;;;;;7.05;2.30;;;16.40;57.40;;;;;;5095995;28;20035;-89
2023/03/26 03:21:26;;;;;;;7.68;2.08;;;16.40;57.50;;;;;;5096036;28;20091;-90
2023/03/26 03:23:55;;;;;;;4.65;1.92;;;17.00;57.80;;;;;;5095872;28;20412;-90
2023/03/26 03:26:26;;;;;;;7.30;1.93;;;16.40;57.50;;;;;;5097119;28;20028;-90
2023/03/26 03:28:55;;;;;;;5.97;2.00;;;16.40;57.50;;;;;;5095665;28;20169;-90
2023/03/26 03:31:23;;;;;;;8.43;2.03;;;16.40;57.50;;;;;;5095899;28;20044;-92
2023/03/26 03:33:50;;;;;;;4.53;1.75;;;16.40;57.50;;;;;;5096302;28;20427;-92
2023/03/26 03:36:17;;;;;;;4.45;2.00;;;16.40;57.40;;;;;;5095680;28;20095;-91
2023/03/26 03:38:43;;;;;;;6.25;2.08;;;16.40;57.50;;;;;;5096150;28;20043;-92
2023/03/26 03:41:10;;;;;;;5.82;2.10;;;16.40;57.50;;;;;;5095748;28;20020;-92
2023/03/26 03:43:36;;;;;;;5.95;2.40;;;16.40;57.50;;;;;;5095724;28;20024;-91
2023/03/26 03:46:02;;;;;;;4.28;1.77;;;16.40;57.50;;;;;;5095607;28;20077;-92
2023/03/26 03:48:28;;;;;;;6.68;2.47;;;16.40;57.50;;;;;;5095322;28;20020;-92
2023/03/26 03:50:54;;;;;;;4.30;2.00;;;16.40;57.60;;;;;;5095287;28;20039;-72
2023/03/26 03:53:24;;;;;;;7.47;2.03;;;16.40;57.60;;;;;;5094289;28;20028;-72
2023/03/26 03:55:54;;;;;;;7.75;2.17;;;16.40;58.20;;;;;;5094505;28;20390;-72
2023/03/26 03:58:27;;;;;;;4.88;1.60;;;16.40;57.60;;;;;;5093988;28;20092;-72
2023/03/26 04:01:03;;;;;;;6.32;2.40;;;16.40;57.80;;;;;;5094099;28;20510;-72
2023/03/26 04:03:29;;;;;;;5.13;1.63;;;16.40;57.60;;;;;;5094174;28;20433;-72
2023/03/26 04:05:55;;;;;;;7.13;1.75;;;16.40;57.60;;;;;;5093956;28;20020;-72
2023/03/26 04:08:21;;;;;;;6.50;2.05;;;16.40;57.60;;;;;;5093905;28;20081;-72
2023/03/26 04:10:48;;;;;;;6.88;2.00;;;16.30;57.50;;;;;;5094212;28;20020;-72
2023/03/26 04:13:14;;;;;;;5.10;1.65;;;16.40;57.50;;;;;;5093728;28;20479;-72
2023/03/26 04:15:41;;;;;;;4.35;1.77;;;16.30;58.20;;;;;;5093723;28;20487;-72
2023/03/26 04:18:09;;;;;;;5.05;1.58;;;16.30;57.50;;;;;;5093671;28;20032;-72
2023/03/26 04:20:40;;;;;;;7.28;1.65;;;16.30;57.50;;;;;;5093648;28;20129;-72
2023/03/26 04:23:07;;;;;;;4.10;1.60;;;16.30;57.50;;;;;;5093607;28;20039;-72
2023/03/26 04:25:35;;;;;;;4.25;1.58;;;16.30;57.50;;;;;;5093442;28;20043;-72
2023/03/26 04:28:05;;;;;;;5.38;1.80;;;16.30;57.60;;;;;;5093781;28;20030;-72
2023/03/26 04:30:32;;;;;;;4.22;1.92;;;16.30;57.60;;;;;;5093593;28;20027;-72
2023/03/26 04:33:02;;;;;;;4.75;1.80;;;16.30;57.50;;;;;;5093485;28;20024;-72
2023/03/26 04:35:33;;;;;;;5.32;1.83;;;16.30;57.50;;;;;;5093836;28;20024;-72
2023/03/26 04:38:00;;;;;;;4.22;1.55;;;16.30;57.50;;;;;;5093330;28;20040;-72
2023/03/26 04:40:29;;;;;;;4.75;1.77;;;16.30;57.50;;;;;;5093423;28;20382;-72
2023/03/26 04:42:57;;;;;;;3.83;1.80;;;16.30;57.50;;;;;;5093260;28;20051;-72
2023/03/26 04:45:23;;;;;;;4.75;1.63;;;16.30;57.50;;;;;;5093260;28;20379;-72
2023/03/26 04:47:49;;;;;;;4.10;2.00;;;16.30;57.50;;;;;;5093321;28;20024;-72
2023/03/26 04:50:15;;;;;;;4.22;1.42;;;16.30;57.50;;;;;;5093052;28;20464;-72
2023/03/26 04:52:41;;;;;;;5.95;1.98;;;16.30;57.60;;;;;;5092958;28;20107;-72
2023/03/26 04:55:36;;;;;;;3.58;1.42;;;16.30;57.60;;;;;;5093003;28;20016;-72
2023/03/26 04:58:03;;;;;;;3.25;1.42;;;16.30;57.60;;;;;;5088670;28;20569;-72
2023/03/26 05:00:29;;;;;;;4.20;1.35;;;16.30;57.60;;;;;;5092892;28;20024;-72
2023/03/26 05:02:58;;;;;;;3.30;1.50;;;16.30;57.60;;;;;;5093061;28;20106;-72
2023/03/26 05:05:25;;;;;;;4.30;1.70;;;16.30;57.60;;;;;;5093260;28;20034;-72
2023/03/26 05:07:51;;;;;;;6.03;1.98;;;16.30;57.60;;;;;;5094344;28;20568;-93
2023/03/26 05:10:19;;;;;;;3.05;1.42;;;16.30;57.60;;;;;;5093883;28;20024;-91
2023/03/26 05:12:45;;;;;;;4.25;1.80;;;16.30;57.60;;;;;;5094083;28;20028;-92
2023/03/26 05:15:13;;;;;;;3.30;1.45;;;16.30;57.60;;;;;;5094631;28;20027;-91
2023/03/26 05:17:40;;;;;;;4.95;1.48;;;16.30;57.60;;;;;;5094146;28;20495;-91
2023/03/26 05:20:15;;;;;;;5.32;1.60;;;16.30;57.60;;;;;;5094712;28;20024;-92
2023/03/26 05:22:42;;;;;;;4.40;1.30;;;16.30;57.60;;;;;;5094178;28;20425;-90
2023/03/26 05:25:09;;;;;;;5.63;1.77;;;16.30;57.70;;;;;;5093530;28;20040;-88
2023/03/26 05:27:35;;;;;;;4.07;1.30;;;16.30;57.60;;;;;;5093442;28;20066;-87
2023/03/26 05:30:02;;;;;;;2.80;1.30;;;16.30;57.60;;;;;;5093482;28;20024;-88
2023/03/26 05:32:30;;;;;;;4.88;1.60;;;16.30;57.70;;;;;;5093473;28;20021;-88
2023/03/26 05:34:56;;;;;;;4.38;1.55;;;16.30;57.60;;;;;;5093511;28;20041;-88
2023/03/26 05:37:23;;;;;;;3.13;1.23;;;16.20;57.60;;;;;;5093342;28;20035;-87
2023/03/26 05:39:55;;;;;;;3.90;1.50;;;16.20;57.60;;;;;;5093455;28;20027;-88
2023/03/26 05:42:22;;;;;;;3.65;1.58;;;16.20;57.60;;;;;;5093775;28;20035;-90
2023/03/26 05:44:48;;;;;;;3.72;1.20;;;16.20;57.70;;;;;;5093911;28;20073;-90
2023/03/26 05:47:14;;;;;;;5.13;1.50;;;16.20;57.70;;;;;;5093252;28;20020;-90
2023/03/26 05:49:40;;;;;;;4.25;1.35;;;16.20;57.70;;;;;;5093570;28;20099;-90
2023/03/26 05:52:06;;;;;;;4.55;1.38;;;16.30;57.80;;;;;;5093624;28;20101;-90
2023/03/26 05:54:32;;;;;;;3.35;1.50;;;16.20;57.70;;;;;;5093390;28;20020;-90
2023/03/26 05:56:59;;;;;;;4.72;1.45;;;16.20;57.80;;;;;;5093292;28;20070;-90
2023/03/26 05:59:25;;;;;;;4.50;1.52;;;16.20;57.80;;;;;;5093436;28;20074;-91
2023/03/26 06:01:53;;;;;;;4.20;1.40;;;16.20;57.80;;;;;;5094945;28;20032;-91
2023/03/26 06:04:20;;;;;;;3.30;1.13;;;16.20;57.80;;;;;;5093751;28;20035;-91
2023/03/26 06:06:46;;;;;;;2.63;1.30;;;16.20;57.80;;;;;;5093946;28;20020;-92
2023/03/26 06:09:12;;;;;;;2.47;1.02;;;16.20;57.80;;;;;;5093591;28;20447;-91
2023/03/26 06:11:38;;;;;;;3.03;1.30;;;16.30;57.90;;;;;;5093604;28;20060;-91
2023/03/26 06:14:04;;;;;;;3.22;1.40;;;16.20;57.80;;;;;;5093690;28;20099;-91
2023/03/26 06:16:30;;;;;;;3.22;1.33;;;16.30;58.00;;;;;;5093465;28;20035;-92
2023/03/26 06:18:56;;;;;;;2.38;1.30;;;16.30;57.90;;;;;;5093457;28;20025;-91
2023/03/26 06:21:23;;;;;;;3.72;1.02;;;16.30;57.90;;;;;;5094840;28;20027;-92
2023/03/26 06:23:50;;;;;;;4.57;1.30;;;16.20;57.80;;;;;;5097674;28;20031;-92
2023/03/26 06:26:16;;;;;;;2.42;0.93;;;16.30;57.90;;;;;;5097060;28;20118;-91
2023/03/26 06:28:42;;;;;;;3.20;1.20;;;16.30;57.90;;;;;;5097690;28;20055;-91
2023/03/26 06:31:07;;;;;;;3.08;1.30;;;16.20;57.90;;;;;;5097441;28;20020;-91
2023/03/26 06:33:33;;;;;;;2.75;1.08;;;16.20;57.90;;;;;;5097485;28;20100;-91
2023/03/26 06:35:59;;;;;;;2.67;1.00;;;16.30;58.00;;;;;;5097243;28;20024;-93
2023/03/26 06:38:24;;;;;;;4.07;1.48;;;16.30;58.00;;;;;;5097043;28;20085;-90
2023/03/26 06:40:50;;;;;;;3.22;1.40;;;16.30;58.00;;;;;;5096867;28;20024;-91
2023/03/26 06:43:16;;;;;;;3.22;1.15;;;16.30;58.00;;;;;;5096800;28;20063;-91
2023/03/26 06:45:42;;;;;;;3.83;1.20;;;16.30;58.00;;;;;;5096720;28;20027;-91
2023/03/26 06:48:08;;;;;;;3.20;1.13;;;16.30;58.00;;;;;;5097682;28;20470;-90
2023/03/26 06:50:34;;;;;;;2.28;1.30;;;16.30;58.10;;;;;;5097689;28;20012;-90
2023/03/26 06:53:00;;;;;;;2.30;1.05;;;16.30;58.10;;;;;;5096682;28;20028;-91
2023/03/26 06:55:27;;;;;;;2.90;1.13;;;16.30;58.00;;;;;;5096509;28;20041;-89
2023/03/26 06:57:55;;;;;;;3.40;1.42;;;16.30;58.00;;;;;;5096960;28;20028;-93
2023/03/26 07:00:23;;;;;;;2.08;1.08;;;16.30;58.70;;;;;;5096979;28;20031;-93
2023/03/26 07:02:49;;;;;;;3.17;1.17;;;16.30;58.00;;;;;;5097263;28;20046;-93
2023/03/26 07:05:15;;;;;;;2.25;0.93;;;16.30;58.60;;;;;;5096669;28;20020;-92
2023/03/26 07:07:41;;;;;;;1.88;1.02;;;16.30;58.10;;;;;;5097097;28;20028;-93
2023/03/26 07:10:08;;;;;;;3.20;1.15;;;16.30;58.10;;;;;;5096809;28;20382;-93
2023/03/26 07:12:34;;;;;;;2.95;1.10;;;16.30;58.00;;;;;;5096698;28;20051;-93
2023/03/26 07:15:02;;;;;;;1.63;0.95;;;16.30;58.10;;;;;;5096456;28;20024;-71
2023/03/26 07:17:28;;;;;;;2.65;1.10;;;16.30;58.10;;;;;;5095123;28;20032;-71
2023/03/26 07:19:54;;;;;;;2.40;0.82;;;16.30;58.00;;;;;;5095251;28;20028;-72
2023/03/26 07:22:23;;;;;;;2.63;0.85;;;16.30;58.00;;;;;;5095039;28;20036;-71
2023/03/26 07:24:49;;;;;;;2.58;1.38;;;16.30;58.00;;;;;;5094675;28;20533;-71
2023/03/26 07:27:39;;;;;;;2.47;1.02;;;16.30;58.10;;;;;;5094734;28;20044;-72
2023/03/26 07:30:37;;;;;;;3.42;1.02;;;16.30;58.00;;;;;;5094686;28;20016;-71
2023/03/26 07:33:03;;;;;;;2.42;0.90;;;16.30;58.10;;;;;;5093937;28;20020;-71
2023/03/26 07:35:44;;;;;;;2.88;1.13;;;16.30;58.00;;;;;;5094769;28;20435;-71
2023/03/26 07:38:35;;;;;;;4.68;1.23;;;16.30;58.00;;;;;;5094507;28;20066;-71
2023/03/26 07:41:12;;;;;;;2.53;1.00;;;16.30;58.00;;;;;;5094857;28;20379;-72
2023/03/26 07:43:47;;;;;;;3.05;0.90;;;16.30;58.00;;;;;;5094674;28;20016;-71
2023/03/26 07:46:14;;;;;;;3.80;1.20;;;16.30;58.10;;;;;;5094628;28;20051;-71
2023/03/26 07:48:43;;;;;;;2.58;1.02;;;16.30;58.10;;;;;;5094592;28;20391;-72
2023/03/26 07:51:10;;;;;;;3.13;0.98;;;16.30;58.20;;;;;;5094432;28;20020;-72
2023/03/26 07:53:36;;;;;;;2.25;1.20;;;16.30;58.20;;;;;;5094064;28;20020;-72
2023/03/26 07:56:22;;;;;;;4.75;1.55;;;16.30;58.20;;;;;;5094163;28;20024;-73
2023/03/26 07:59:18;;;;;;;2.30;1.13;;;16.30;58.10;;;;;;5094234;28;20475;-72
2023/03/26 08:02:02;;;;;;;3.08;1.23;;;16.30;58.10;;;;;;5094300;28;20027;-73
2023/03/26 08:04:46;;;;;;;1.92;1.00;;;16.30;58.20;;;;;;5094290;28;20035;-72
2023/03/26 08:07:51;;;;;;;5.20;0.90;;;16.30;58.20;;;;;;5093933;28;20487;-72
2023/03/26 08:10:23;;;;;;;3.25;1.05;;;16.30;58.20;;;;;;5094235;28;20090;-72
2023/03/26 08:13:22;;;;;;;3.13;0.90;;;16.30;58.20;;;;;;5093879;28;20039;-72
2023/03/26 08:16:14;;;;;;;1.88;0.90;;;16.30;58.20;;;;;;5094074;28;20382;-72
2023/03/26 08:18:47;;;;;;;1.77;0.70;;;16.30;58.10;;;;;;5093629;28;20056;-72
2023/03/26 08:21:22;;;;;;;2.47;1.00;;;16.30;58.20;;;;;;5093681;28;20024;-72
2023/03/26 08:24:25;;;;;;;1.92;0.70;;;16.30;58.20;;;;;;5093496;28;20074;-72
2023/03/26 08:27:21;;;;;;;2.97;1.05;;;16.30;58.20;;;;;;5093898;28;20449;-72
2023/03/26 08:30:07;;;;;;;3.33;0.95;;;16.30;58.20;;;;;;5093537;28;20038;-72
2023/03/26 08:32:33;;;;;;;2.92;0.80;;;16.30;58.20;;;;;;5093439;28;20047;-72
2023/03/26 08:35:00;;;;;;;1.88;0.90;;;16.10;58.00;;;;;;5093371;28;20020;-72
2023/03/26 08:37:26;;;;;;;2.00;0.82;;;16.30;58.10;;;;;;5093292;28;20039;-72
2023/03/26 08:39:53;;;;;;;2.83;1.00;;;16.30;58.20;;;;;;5093223;28;20055;-72
2023/03/26 08:42:19;;;;;;;1.00;0.80;;;16.30;58.20;;;;;;5093661;28;20028;-72
2023/03/26 08:45:00;;;;;;;2.28;1.13;;;16.30;58.20;;;;;;5092967;28;20016;-72
2023/03/26 08:47:38;;;;;;;2.55;0.90;;;16.30;58.20;;;;;;5093237;28;20028;-72
2023/03/26 08:50:41;;;;;;;2.22;0.75;;;16.30;58.20;;;;;;5093134;28;20038;-72
2023/03/26 08:53:38;;;;;;;3.60;1.13;;;16.30;58.20;;;;;;5094427;28;20024;-72
2023/03/26 08:56:45;;;;;;;2.05;0.95;;;16.30;58.20;;;;;;5093373;28;20024;-72
2023/03/26 08:59:33;;;;;;;2.95;0.90;;;16.30;58.20;;;;;;5089900;28;20118;-72
2023/03/26 09:02:24;;;;;;;1.73;1.10;;;16.30;58.20;;;;;;5092821;28;20024;-72
2023/03/26 09:05:13;;;;;;;3.70;1.08;;;16.30;58.20;;;;;;5093328;28;20107;-72
2023/03/26 09:07:42;;;;;;;3.38;0.93;;;16.30;58.20;;;;;;5089645;28;20040;-72
2023/03/26 09:10:26;;;;;;;4.28;1.20;;;16.30;58.20;;;;;;5092676;28;20031;-72
2023/03/26 09:13:17;;;;;;;2.05;0.88;;;16.30;58.20;;;;;;5092724;28;20024;-72
2023/03/26 09:16:19;;;;;;;1.52;0.98;;;16.30;58.30;;;;;;5092895;28;20436;-72
2023/03/26 09:19:00;;;;;;;3.92;0.80;;;16.30;58.20;;;;;;5092584;28;20032;-72
2023/03/26 09:21:26;;;;;;;3.47;1.02;;;16.30;58.20;;;;;;5092641;28;20024;-72
2023/03/26 09:24:24;;;;;;;2.30;0.93;;;16.30;58.20;;;;;;5092401;28;20109;-72
2023/03/26 09:27:06;;;;;;;3.90;1.10;;;16.30;58.20;;;;;;5092450;28;20024;-72
2023/03/26 09:29:56;;;;;;;2.50;1.25;;;16.30;58.20;;;;;;5108260;28;20421;-72
2023/03/26 09:32:50;;;;;;;2.38;0.90;;;16.30;58.20;;;;;;5092610;28;20039;-72
2023/03/26 09:35:38;;;;;;;2.13;1.00;;;16.30;58.20;;;;;;5092703;28;20089;-72
2023/03/26 09:38:31;;;;;;;2.03;0.82;;;16.30;58.20;;;;;;5092293;28;20035;-72
2023/03/26 09:41:03;;;;;;;2.28;0.80;;;16.30;58.30;;;;;;5092382;28;20542;-72
2023/03/26 09:44:00;;;;;;;1.80;0.80;;;16.30;58.20;;;;;;5092576;28;20039;-72
2023/03/26 09:46:26;;;;;;;2.17;0.75;;;16.30;58.20;;;;;;5092321;28;20039;-72
2023/03/26 09:49:12;;;;;;;1.63;0.93;;;16.30;58.20;;;;;;5092268;28;20050;-72
2023/03/26 09:52:03;;;;;;;2.20;0.95;;;16.30;58.20;;;;;;5091979;28;20078;-73
2023/03/26 09:54:50;;;;;;;1.20;0.65;;;16.30;58.30;;;;;;5092170;28;20028;-73
2023/03/26 09:57:34;;;;;;;1.95;0.73;;;16.30;58.30;;;;;;5094498;28;20059;-73
2023/03/26 10:00:21;;;;;;;3.30;1.00;;;16.30;58.30;;;;;;5096558;28;20433;-73
2023/03/26 10:03:06;;;;;;;1.55;0.90;;;16.30;58.30;;;;;;5096433;28;20441;-72
2023/03/26 10:05:49;;;;;;;3.47;0.98;;;16.30;58.30;;;;;;5096417;28;20056;-73
2023/03/26 10:08:28;;;;;;;3.83;0.98;;;16.30;58.30;;;;;;5096335;28;20055;-72
2023/03/26 10:11:18;;;;;;;3.53;1.15;;;16.30;58.30;;;;;;5096346;28;20050;-72
2023/03/26 10:14:02;;;;;;;2.88;1.10;;;16.30;58.30;;;;;;5096330;28;20036;-72
2023/03/26 10:17:05;;;;;;;2.70;1.30;;;16.30;58.30;;;;;;5096176;28;20020;-73
2023/03/26 10:19:45;;;;;;;2.13;0.90;;;16.30;58.30;;;;;;5096230;28;20084;-73
2023/03/26 10:22:11;;;;;;;;;;;16.30;58.30;;;;;;5096524;28;20032;-73
2023/03/26 10:24:58;;;;;;;2.80;1.00;;;16.30;58.30;;;;;;5095847;28;19994;-73
2023/03/26 10:27:50;;;;;;;1.98;0.98;;;16.30;58.20;;;;;;5095985;28;20110;-73
2023/03/26 10:31:00;;;;;;;2.03;1.00;;;16.40;58.30;;;;;;5091679;28;20410;-72
2023/03/26 10:34:00;;;;;;;1.40;0.70;;;16.40;58.30;;;;;;5093414;28;20038;-72
2023/03/26 10:36:39;;;;;;;1.85;0.80;;;16.40;58.30;;;;;;5095792;28;20032;-73
2023/03/26 10:39:23;;;;;;;3.75;0.80;;;16.40;58.30;;;;;;5095864;28;20042;-72
2023/03/26 10:41:53;;;;;;;1.58;0.77;;;16.40;58.30;;;;;;5111422;28;20020;-72
2023/03/26 10:44:42;;;;;;;2.65;1.10;;;16.40;58.30;;;;;;5095643;28;20016;-73
2023/03/26 10:47:45;;;;;;;2.20;0.70;;;16.40;58.40;;;;;;5095603;28;20024;-73
2023/03/26 10:50:29;;;;;;;4.80;0.90;;;16.40;58.30;;;;;;5095696;28;20032;-73
2023/03/26 10:53:25;;;;;;;2.40;0.85;;;16.40;58.40;;;;;;5095574;28;20048;-74
2023/03/26 10:55:56;;;;;;;1.77;0.85;;;16.40;58.50;;;;;;5095823;28;20099;-74
2023/03/26 10:58:25;;;;;;;3.38;1.10;;;16.40;58.50;;;;;;5095251;28;20081;-73
2023/03/26 11:01:04;;;;;;;3.30;0.73;;;16.40;58.50;;;;;;5095620;28;20027;-73
2023/03/26 11:03:54;;;;;;;1.63;0.98;;;16.40;58.50;;;;;;5095462;28;20057;-76
2023/03/26 11:06:57;;;;;;;2.38;0.77;;;16.40;58.60;;;;;;5095116;28;20032;-72
2023/03/26 11:09:34;;;;;;;1.08;0.60;;;16.40;58.60;;;;;;5095341;28;20035;-72
2023/03/26 11:12:07;;;;;;;2.78;0.82;;;16.40;58.60;;;;;;5095178;28;20036;-72
2023/03/26 11:14:51;;;;;;;1.00;0.55;;;16.40;58.70;;;;;;5095254;28;20497;-83
2023/03/26 11:17:53;;;;;;;2.95;0.98;;;16.40;58.70;;;;;;5095310;28;20028;-82
2023/03/26 11:20:35;;;;;;;1.00;0.65;;;16.40;58.70;;;;;;5083716;28;20040;-79
2023/03/26 11:23:20;;;;;;;1.25;0.88;;;16.40;58.70;;;;;;5095396;28;20071;-92
2023/03/26 11:26:15;;;;;;;2.08;0.88;;;16.40;58.80;;;;;;5095034;28;20056;-87
2023/03/26 11:28:48;;;;;;;2.28;1.10;;;16.40;58.80;;;;;;5095251;28;20028;-86
2023/03/26 11:31:54;;;;;;;1.83;0.90;;;16.40;58.70;;;;;;5095486;28;20375;-86
2023/03/26 11:34:32;;;;;;;0.98;0.70;;;16.40;58.70;;;;;;5095476;28;20054;-85
2023/03/26 11:37:01;;;;;;;1.73;0.60;;;16.40;58.80;;;;;;5095374;28;20031;-87
2023/03/26 11:39:36;;;;;;;1.75;1.13;;;16.40;58.70;;;;;;5095272;28;20383;-86
2023/03/26 11:42:09;;;;;;;2.60;1.13;;;16.40;58.80;;;;;;5095023;28;20016;-87
2023/03/26 11:45:00;;;;;;;3.72;1.15;;;16.40;58.80;;;;;;5095245;28;20378;-88
2023/03/26 11:48:02;;;;;;;4.78;1.20;;;16.40;58.90;;;;;;5095083;28;20051;-86
2023/03/26 11:50:34;;;;;;;1.85;0.82;;;16.40;58.80;;;;;;5091040;28;20036;-86
2023/03/26 11:53:11;;;;;;;2.80;1.02;;;16.40;58.70;;;;;;5094878;28;20039;-85
2023/03/26 11:55:46;;;;;;;2.20;0.80;;;16.40;58.70;;;;;;5094799;28;20016;-85
2023/03/26 11:58:33;;;;;;;0.95;0.47;;;16.40;58.70;;;;;;5094284;28;20089;-84
2023/03/26 12:01:04;;;;;;;1.88;0.77;;;16.40;58.70;;;;;;5094805;28;20024;-86
2023/03/26 12:03:30;;;;;;;2.10;0.88;;;16.40;58.60;;;;;;5094277;28;20110;-85
2023/03/26 12:06:01;;;;;;;2.67;0.90;;;16.40;58.70;;;;;;5094434;28;20547;-85
2023/03/26 12:08:36;;;;;;;1.65;0.75;;;16.40;58.60;;;;;;5094515;28;20028;-87
2023/03/26 12:11:09;;;;;;;2.70;1.33;;;16.40;58.70;;;;;;5094265;28;20023;-86
2023/03/26 12:14:05;;;;;;;2.40;0.93;;;16.40;58.70;;;;;;5094531;28;20024;-86
2023/03/26 12:16:31;;;;;;;3.17;0.90;;;16.40;58.60;;;;;;5089135;28;20028;-86
2023/03/26 12:19:05;;;;;;;4.55;0.95;;;16.40;58.60;;;;;;5093882;28;20028;-86
2023/03/26 12:21:46;;;;;;;2.05;0.90;;;16.40;58.60;;;;;;5094436;28;20085;-86
2023/03/26 12:24:30;;;;;;;1.85;0.95;;;16.40;59.20;;;;;;5093872;28;20044;-85
2023/03/26 12:27:20;;;;;;;0.85;0.63;;;16.40;58.50;;;;;;5094328;28;20024;-73
2023/03/26 12:30:03;;;;;;;3.55;1.05;;;16.40;58.60;;;;;;5093520;28;20036;-73
2023/03/26 12:32:34;;;;;;;3.92;1.13;;;16.40;58.60;;;;;;5093402;28;20027;-73
2023/03/26 12:35:13;;;;;;;4.90;1.60;;;16.40;58.50;;;;;;5093712;28;20475;-73
2023/03/26 12:37:42;;;;;;;3.65;0.90;;;16.40;58.60;;;;;;5093355;28;20031;-72
2023/03/26 12:40:26;;;;;;;3.25;1.02;;;16.40;58.50;;;;;;5093356;28;20020;-73
2023/03/26 12:42:58;;;;;;;4.40;1.10;;;16.40;58.40;;;;;;5093539;28;20032;-73
2023/03/26 12:45:36;;;;;;;1.80;1.00;;;16.40;58.40;;;;;;5093397;28;20016;-73
2023/03/26 12:48:02;;;;;;;3.38;1.25;;;16.40;58.40;;;;;;5093591;28;20048;-73
2023/03/26 12:51:06;;;;;;;3.00;0.98;;;16.40;58.30;;;;;;5093157;28;20363;-72
2023/03/26 12:53:57;;;;;;;2.35;0.75;;;16.40;58.30;;;;;;5093210;28;20027;-72
2023/03/26 12:56:35;;;;;;;6.00;1.20;;;16.40;58.30;;;;;;5093201;28;20028;-73
2023/03/26 12:59:18;;;;;;;3.42;1.08;;;16.40;58.30;;;;;;5093033;28;20035;-72
2023/03/26 13:02:01;;;;;;;4.00;1.10;;;16.30;58.20;;;;;;5093209;28;20024;-72
2023/03/26 13:04:46;;;;;;;4.45;1.00;;;16.40;58.20;;;;;;5093288;28;20062;-71
2023/03/26 13:07:49;;;;;;;6.13;1.60;;;16.40;58.20;;;;;;5092831;28;20118;-71
2023/03/26 13:10:28;;;;;;;4.40;1.00;;;16.30;58.10;;;;;;5093106;28;20492;-73
2023/03/26 13:13:12;;;;;;;2.72;1.20;;;16.40;58.10;;;;;;5092974;28;20032;-71
2023/03/26 13:15:48;;;;;;;3.00;0.90;;;16.30;58.10;;;;;;5093038;28;20383;-71
2023/03/26 13:18:34;;;;;;;4.32;0.90;;;16.30;58.10;;;;;;5093131;28;20402;-71
2023/03/26 13:21:15;;;;;;;2.75;0.90;;;16.30;58.00;;;;;;5092906;28;20095;-71
2023/03/26 13:24:16;;;;;;;3.40;0.80;;;16.30;58.00;;;;;;5092707;28;20095;-71
2023/03/26 13:27:12;;;;;;;3.42;0.90;;;16.30;58.00;;;;;;5073455;28;20397;-71